sensor_id;sensor_type;location;lat;lon;timestamp;P1;durP1;ratioP1;P2;durP2;ratioP2
57225;SDS011;43082;43.568;22.256;2022-08-21T00:00:14;12.90;;;6.22;;
57225;SDS011;43082;43.568;22.256;2022-08-21T00:02:48;14.43;;;6.80;;
57225;SDS011;43082;43.568;22.256;2022-08-21T00:05:16;16.42;;;5.97;;
57225;SDS011;43082;43.568;22.256;2022-08-21T00:07:42;15.02;;;7.00;;
57225;SDS011;43082;43.568;22.256;2022-08-21T00:10:09;12.20;;;5.70;;
57225;SDS011;43082;43.568;22.256;2022-08-21T00:12:34;14.13;;;6.25;;
57225;SDS011;43082;43.568;22.256;2022-08-21T00:15:00;13.30;;;6.03;;
57225;SDS011;43082;43.568;22.256;2022-08-21T00:17:25;14.57;;;6.05;;
57225;SDS011;43082;43.568;22.256;2022-08-21T00:19:51;10.57;;;5.93;;
57225;SDS011;43082;43.568;22.256;2022-08-21T00:22:16;13.88;;;5.95;;
57225;SDS011;43082;43.568;22.256;2022-08-21T00:24:42;11.40;;;6.00;;
57225;SDS011;43082;43.568;22.256;2022-08-21T00:27:08;11.75;;;6.15;;
57225;SDS011;43082;43.568;22.256;2022-08-21T00:29:33;10.88;;;5.78;;
57225;SDS011;43082;43.568;22.256;2022-08-21T00:31:58;10.85;;;5.38;;
57225;SDS011;43082;43.568;22.256;2022-08-21T00:34:24;14.25;;;8.10;;
57225;SDS011;43082;43.568;22.256;2022-08-21T00:36:50;11.05;;;6.80;;
57225;SDS011;43082;43.568;22.256;2022-08-21T00:39:15;11.48;;;6.25;;
57225;SDS011;43082;43.568;22.256;2022-08-21T00:41:41;14.15;;;6.25;;
57225;SDS011;43082;43.568;22.256;2022-08-21T00:44:08;10.25;;;5.55;;
57225;SDS011;43082;43.568;22.256;2022-08-21T00:46:36;10.40;;;5.50;;
57225;SDS011;43082;43.568;22.256;2022-08-21T00:49:02;15.02;;;6.18;;
57225;SDS011;43082;43.568;22.256;2022-08-21T00:51:32;13.80;;;6.35;;
57225;SDS011;43082;43.568;22.256;2022-08-21T00:54:02;14.07;;;6.30;;
57225;SDS011;43082;43.568;22.256;2022-08-21T00:56:28;14.57;;;6.53;;
57225;SDS011;43082;43.568;22.256;2022-08-21T00:58:54;14.80;;;5.90;;
57225;SDS011;43082;43.568;22.256;2022-08-21T01:01:21;13.73;;;5.80;;
57225;SDS011;43082;43.568;22.256;2022-08-21T01:03:46;13.88;;;5.78;;
57225;SDS011;43082;43.568;22.256;2022-08-21T01:06:12;11.55;;;6.30;;
57225;SDS011;43082;43.568;22.256;2022-08-21T01:08:38;12.43;;;5.90;;
57225;SDS011;43082;43.568;22.256;2022-08-21T01:11:04;14.23;;;6.07;;
57225;SDS011;43082;43.568;22.256;2022-08-21T01:13:32;13.85;;;7.90;;
57225;SDS011;43082;43.568;22.256;2022-08-21T01:16:00;13.52;;;6.60;;
57225;SDS011;43082;43.568;22.256;2022-08-21T01:18:28;12.13;;;6.50;;
57225;SDS011;43082;43.568;22.256;2022-08-21T01:21:27;9.80;;;5.72;;
57225;SDS011;43082;43.568;22.256;2022-08-21T01:23:50;11.70;;;6.03;;
57225;SDS011;43082;43.568;22.256;2022-08-21T01:26:19;13.82;;;6.35;;
57225;SDS011;43082;43.568;22.256;2022-08-21T01:29:07;14.43;;;5.63;;
57225;SDS011;43082;43.568;22.256;2022-08-21T01:31:37;11.95;;;5.00;;
57225;SDS011;43082;43.568;22.256;2022-08-21T01:34:03;12.30;;;4.85;;
57225;SDS011;43082;43.568;22.256;2022-08-21T01:36:29;11.63;;;5.50;;
57225;SDS011;43082;43.568;22.256;2022-08-21T01:38:55;16.25;;;5.47;;
57225;SDS011;43082;43.568;22.256;2022-08-21T01:41:21;13.13;;;4.93;;
57225;SDS011;43082;43.568;22.256;2022-08-21T01:43:46;15.90;;;4.80;;
57225;SDS011;43082;43.568;22.256;2022-08-21T01:46:12;14.73;;;5.60;;
57225;SDS011;43082;43.568;22.256;2022-08-21T01:48:38;11.18;;;4.88;;
57225;SDS011;43082;43.568;22.256;2022-08-21T01:51:04;10.95;;;5.10;;
57225;SDS011;43082;43.568;22.256;2022-08-21T01:53:30;15.20;;;6.05;;
57225;SDS011;43082;43.568;22.256;2022-08-21T01:55:56;9.68;;;5.60;;
57225;SDS011;43082;43.568;22.256;2022-08-21T01:58:21;14.65;;;6.15;;
57225;SDS011;43082;43.568;22.256;2022-08-21T02:00:47;11.95;;;5.65;;
57225;SDS011;43082;43.568;22.256;2022-08-21T02:03:13;17.05;;;5.88;;
57225;SDS011;43082;43.568;22.256;2022-08-21T02:05:38;12.27;;;5.75;;
57225;SDS011;43082;43.568;22.256;2022-08-21T02:08:04;16.45;;;5.75;;
57225;SDS011;43082;43.568;22.256;2022-08-21T02:10:31;13.10;;;5.78;;
57225;SDS011;43082;43.568;22.256;2022-08-21T02:12:57;14.32;;;5.88;;
57225;SDS011;43082;43.568;22.256;2022-08-21T02:15:24;12.70;;;5.72;;
57225;SDS011;43082;43.568;22.256;2022-08-21T02:17:52;9.07;;;5.65;;
57225;SDS011;43082;43.568;22.256;2022-08-21T02:20:25;11.73;;;5.80;;
57225;SDS011;43082;43.568;22.256;2022-08-21T02:23:05;12.48;;;5.57;;
57225;SDS011;43082;43.568;22.256;2022-08-21T02:25:32;11.40;;;5.50;;
57225;SDS011;43082;43.568;22.256;2022-08-21T02:27:58;14.52;;;5.93;;
57225;SDS011;43082;43.568;22.256;2022-08-21T02:30:29;10.80;;;5.35;;
57225;SDS011;43082;43.568;22.256;2022-08-21T02:32:56;12.48;;;5.82;;
57225;SDS011;43082;43.568;22.256;2022-08-21T02:35:23;9.98;;;4.72;;
57225;SDS011;43082;43.568;22.256;2022-08-21T02:37:50;12.20;;;4.80;;
57225;SDS011;43082;43.568;22.256;2022-08-21T02:40:17;12.00;;;5.15;;
57225;SDS011;43082;43.568;22.256;2022-08-21T02:42:45;10.80;;;4.85;;
57225;SDS011;43082;43.568;22.256;2022-08-21T02:45:11;10.25;;;4.28;;
57225;SDS011;43082;43.568;22.256;2022-08-21T02:47:37;12.60;;;4.28;;
57225;SDS011;43082;43.568;22.256;2022-08-21T02:50:03;10.38;;;4.25;;
57225;SDS011;43082;43.568;22.256;2022-08-21T02:52:29;9.60;;;4.30;;
57225;SDS011;43082;43.568;22.256;2022-08-21T02:54:55;16.73;;;4.90;;
57225;SDS011;43082;43.568;22.256;2022-08-21T02:57:20;10.75;;;4.53;;
57225;SDS011;43082;43.568;22.256;2022-08-21T02:59:46;12.98;;;5.00;;
57225;SDS011;43082;43.568;22.256;2022-08-21T03:02:12;11.07;;;4.65;;
57225;SDS011;43082;43.568;22.256;2022-08-21T03:04:37;12.70;;;4.57;;
57225;SDS011;43082;43.568;22.256;2022-08-21T03:07:03;11.60;;;4.30;;
57225;SDS011;43082;43.568;22.256;2022-08-21T03:09:28;13.30;;;4.35;;
57225;SDS011;43082;43.568;22.256;2022-08-21T03:11:54;11.60;;;4.47;;
57225;SDS011;43082;43.568;22.256;2022-08-21T03:14:19;10.07;;;4.22;;
57225;SDS011;43082;43.568;22.256;2022-08-21T03:16:45;11.45;;;4.53;;
57225;SDS011;43082;43.568;22.256;2022-08-21T03:19:11;11.77;;;4.85;;
57225;SDS011;43082;43.568;22.256;2022-08-21T03:21:36;12.50;;;4.47;;
57225;SDS011;43082;43.568;22.256;2022-08-21T03:24:02;10.10;;;4.07;;
57225;SDS011;43082;43.568;22.256;2022-08-21T03:26:27;9.95;;;4.45;;
57225;SDS011;43082;43.568;22.256;2022-08-21T03:28:53;9.02;;;4.20;;
57225;SDS011;43082;43.568;22.256;2022-08-21T03:31:18;9.73;;;4.20;;
57225;SDS011;43082;43.568;22.256;2022-08-21T03:33:44;12.10;;;4.30;;
57225;SDS011;43082;43.568;22.256;2022-08-21T03:36:10;10.48;;;4.68;;
57225;SDS011;43082;43.568;22.256;2022-08-21T03:38:36;10.20;;;4.55;;
57225;SDS011;43082;43.568;22.256;2022-08-21T03:41:02;10.13;;;4.00;;
57225;SDS011;43082;43.568;22.256;2022-08-21T03:43:28;9.27;;;3.70;;
57225;SDS011;43082;43.568;22.256;2022-08-21T03:45:54;10.23;;;4.10;;
57225;SDS011;43082;43.568;22.256;2022-08-21T03:48:20;8.02;;;3.60;;
57225;SDS011;43082;43.568;22.256;2022-08-21T03:50:45;9.73;;;4.13;;
57225;SDS011;43082;43.568;22.256;2022-08-21T03:53:12;12.52;;;3.50;;
57225;SDS011;43082;43.568;22.256;2022-08-21T03:55:38;11.00;;;3.80;;
57225;SDS011;43082;43.568;22.256;2022-08-21T03:58:04;9.82;;;3.75;;
57225;SDS011;43082;43.568;22.256;2022-08-21T04:00:30;9.63;;;3.78;;
57225;SDS011;43082;43.568;22.256;2022-08-21T04:02:55;11.88;;;3.72;;
57225;SDS011;43082;43.568;22.256;2022-08-21T04:05:21;8.73;;;3.90;;
57225;SDS011;43082;43.568;22.256;2022-08-21T04:07:56;10.98;;;4.13;;
57225;SDS011;43082;43.568;22.256;2022-08-21T04:10:22;8.75;;;3.92;;
57225;SDS011;43082;43.568;22.256;2022-08-21T04:12:49;11.70;;;3.97;;
57225;SDS011;43082;43.568;22.256;2022-08-21T04:15:15;15.32;;;4.30;;
57225;SDS011;43082;43.568;22.256;2022-08-21T04:17:41;8.85;;;3.83;;
57225;SDS011;43082;43.568;22.256;2022-08-21T04:20:06;13.05;;;4.18;;
57225;SDS011;43082;43.568;22.256;2022-08-21T04:22:32;9.43;;;4.45;;
57225;SDS011;43082;43.568;22.256;2022-08-21T04:24:58;10.88;;;4.88;;
57225;SDS011;43082;43.568;22.256;2022-08-21T04:27:23;12.75;;;5.03;;
57225;SDS011;43082;43.568;22.256;2022-08-21T04:29:49;11.75;;;5.07;;
57225;SDS011;43082;43.568;22.256;2022-08-21T04:32:20;11.73;;;6.13;;
57225;SDS011;43082;43.568;22.256;2022-08-21T04:34:49;12.02;;;5.82;;
57225;SDS011;43082;43.568;22.256;2022-08-21T04:37:14;10.40;;;4.00;;
57225;SDS011;43082;43.568;22.256;2022-08-21T04:39:40;14.20;;;5.00;;
57225;SDS011;43082;43.568;22.256;2022-08-21T04:42:06;11.70;;;5.32;;
57225;SDS011;43082;43.568;22.256;2022-08-21T04:44:32;12.23;;;5.00;;
57225;SDS011;43082;43.568;22.256;2022-08-21T04:46:58;13.05;;;5.03;;
57225;SDS011;43082;43.568;22.256;2022-08-21T04:49:23;12.07;;;5.20;;
57225;SDS011;43082;43.568;22.256;2022-08-21T04:51:49;12.13;;;5.50;;
57225;SDS011;43082;43.568;22.256;2022-08-21T04:54:17;10.82;;;6.30;;
57225;SDS011;43082;43.568;22.256;2022-08-21T04:56:45;10.23;;;4.35;;
57225;SDS011;43082;43.568;22.256;2022-08-21T04:59:18;14.50;;;7.57;;
57225;SDS011;43082;43.568;22.256;2022-08-21T05:01:46;11.30;;;5.22;;
57225;SDS011;43082;43.568;22.256;2022-08-21T05:04:12;15.10;;;4.72;;
57225;SDS011;43082;43.568;22.256;2022-08-21T05:06:40;10.10;;;3.90;;
57225;SDS011;43082;43.568;22.256;2022-08-21T05:09:07;7.95;;;3.15;;
57225;SDS011;43082;43.568;22.256;2022-08-21T05:11:34;9.30;;;3.80;;
57225;SDS011;43082;43.568;22.256;2022-08-21T05:14:00;11.32;;;3.72;;
57225;SDS011;43082;43.568;22.256;2022-08-21T05:16:25;11.75;;;3.63;;
57225;SDS011;43082;43.568;22.256;2022-08-21T05:18:51;19.20;;;3.70;;
57225;SDS011;43082;43.568;22.256;2022-08-21T05:21:17;10.63;;;3.80;;
57225;SDS011;43082;43.568;22.256;2022-08-21T05:23:42;10.55;;;3.47;;
57225;SDS011;43082;43.568;22.256;2022-08-21T05:26:08;9.27;;;3.75;;
57225;SDS011;43082;43.568;22.256;2022-08-21T05:28:33;10.27;;;4.18;;
57225;SDS011;43082;43.568;22.256;2022-08-21T05:30:59;9.40;;;3.40;;
57225;SDS011;43082;43.568;22.256;2022-08-21T05:33:24;10.35;;;3.47;;
57225;SDS011;43082;43.568;22.256;2022-08-21T05:35:50;10.25;;;3.58;;
57225;SDS011;43082;43.568;22.256;2022-08-21T05:38:17;9.63;;;3.20;;
57225;SDS011;43082;43.568;22.256;2022-08-21T05:40:43;9.70;;;3.28;;
57225;SDS011;43082;43.568;22.256;2022-08-21T05:43:08;10.20;;;3.55;;
57225;SDS011;43082;43.568;22.256;2022-08-21T05:45:34;13.50;;;5.55;;
57225;SDS011;43082;43.568;22.256;2022-08-21T05:48:16;8.93;;;4.00;;
57225;SDS011;43082;43.568;22.256;2022-08-21T05:50:44;12.98;;;5.63;;
57225;SDS011;43082;43.568;22.256;2022-08-21T05:53:11;10.35;;;4.88;;
57225;SDS011;43082;43.568;22.256;2022-08-21T05:55:37;14.65;;;7.72;;
57225;SDS011;43082;43.568;22.256;2022-08-21T05:58:03;10.20;;;5.35;;
57225;SDS011;43082;43.568;22.256;2022-08-21T06:00:29;11.52;;;4.80;;
57225;SDS011;43082;43.568;22.256;2022-08-21T06:02:54;9.93;;;3.65;;
57225;SDS011;43082;43.568;22.256;2022-08-21T06:05:20;9.43;;;3.28;;
57225;SDS011;43082;43.568;22.256;2022-08-21T06:07:46;10.93;;;3.45;;
57225;SDS011;43082;43.568;22.256;2022-08-21T06:10:12;13.32;;;4.00;;
57225;SDS011;43082;43.568;22.256;2022-08-21T06:12:37;14.10;;;4.13;;
57225;SDS011;43082;43.568;22.256;2022-08-21T06:15:03;13.90;;;4.88;;
57225;SDS011;43082;43.568;22.256;2022-08-21T06:17:29;11.60;;;4.93;;
57225;SDS011;43082;43.568;22.256;2022-08-21T06:19:54;13.32;;;6.30;;
57225;SDS011;43082;43.568;22.256;2022-08-21T06:22:20;12.45;;;5.93;;
57225;SDS011;43082;43.568;22.256;2022-08-21T06:24:45;14.90;;;6.00;;
57225;SDS011;43082;43.568;22.256;2022-08-21T06:27:11;14.25;;;6.45;;
57225;SDS011;43082;43.568;22.256;2022-08-21T06:29:36;12.55;;;6.05;;
57225;SDS011;43082;43.568;22.256;2022-08-21T06:32:03;13.90;;;6.30;;
57225;SDS011;43082;43.568;22.256;2022-08-21T06:34:29;12.70;;;6.65;;
57225;SDS011;43082;43.568;22.256;2022-08-21T06:36:55;13.88;;;6.30;;
57225;SDS011;43082;43.568;22.256;2022-08-21T06:39:21;13.90;;;4.40;;
57225;SDS011;43082;43.568;22.256;2022-08-21T06:41:46;12.65;;;5.00;;
57225;SDS011;43082;43.568;22.256;2022-08-21T06:44:12;10.07;;;3.92;;
57225;SDS011;43082;43.568;22.256;2022-08-21T06:46:41;9.52;;;4.07;;
57225;SDS011;43082;43.568;22.256;2022-08-21T06:49:06;10.10;;;3.50;;
57225;SDS011;43082;43.568;22.256;2022-08-21T06:51:31;8.25;;;3.25;;
57225;SDS011;43082;43.568;22.256;2022-08-21T06:53:57;11.02;;;4.45;;
57225;SDS011;43082;43.568;22.256;2022-08-21T06:56:22;11.52;;;4.90;;
57225;SDS011;43082;43.568;22.256;2022-08-21T06:58:48;12.35;;;5.40;;
57225;SDS011;43082;43.568;22.256;2022-08-21T07:01:13;13.00;;;5.38;;
57225;SDS011;43082;43.568;22.256;2022-08-21T07:03:40;13.57;;;5.70;;
57225;SDS011;43082;43.568;22.256;2022-08-21T07:06:08;13.23;;;5.85;;
57225;SDS011;43082;43.568;22.256;2022-08-21T07:08:34;16.45;;;9.95;;
57225;SDS011;43082;43.568;22.256;2022-08-21T07:11:01;11.90;;;7.47;;
57225;SDS011;43082;43.568;22.256;2022-08-21T07:13:28;12.02;;;5.90;;
57225;SDS011;43082;43.568;22.256;2022-08-21T07:15:53;16.08;;;8.70;;
57225;SDS011;43082;43.568;22.256;2022-08-21T07:18:19;14.07;;;6.60;;
57225;SDS011;43082;43.568;22.256;2022-08-21T07:20:44;15.63;;;7.30;;
57225;SDS011;43082;43.568;22.256;2022-08-21T07:23:13;13.93;;;6.13;;
57225;SDS011;43082;43.568;22.256;2022-08-21T07:25:50;11.88;;;5.75;;
57225;SDS011;43082;43.568;22.256;2022-08-21T07:28:15;12.32;;;5.00;;
57225;SDS011;43082;43.568;22.256;2022-08-21T07:30:41;12.88;;;5.00;;
57225;SDS011;43082;43.568;22.256;2022-08-21T07:33:06;10.55;;;5.70;;
57225;SDS011;43082;43.568;22.256;2022-08-21T07:35:32;12.73;;;7.40;;
57225;SDS011;43082;43.568;22.256;2022-08-21T07:37:58;12.10;;;6.90;;
57225;SDS011;43082;43.568;22.256;2022-08-21T07:40:24;11.70;;;4.60;;
57225;SDS011;43082;43.568;22.256;2022-08-21T07:42:49;11.85;;;5.03;;
57225;SDS011;43082;43.568;22.256;2022-08-21T07:45:16;14.95;;;6.78;;
57225;SDS011;43082;43.568;22.256;2022-08-21T07:47:46;8.32;;;4.55;;
57225;SDS011;43082;43.568;22.256;2022-08-21T07:50:12;13.70;;;7.22;;
57225;SDS011;43082;43.568;22.256;2022-08-21T07:52:39;13.20;;;5.50;;
57225;SDS011;43082;43.568;22.256;2022-08-21T07:55:05;10.80;;;3.17;;
57225;SDS011;43082;43.568;22.256;2022-08-21T07:57:32;16.35;;;8.27;;
57225;SDS011;43082;43.568;22.256;2022-08-21T07:59:57;10.38;;;3.33;;
57225;SDS011;43082;43.568;22.256;2022-08-21T08:02:27;11.20;;;3.45;;
57225;SDS011;43082;43.568;22.256;2022-08-21T08:04:54;11.23;;;4.80;;
57225;SDS011;43082;43.568;22.256;2022-08-21T08:07:19;25.27;;;13.52;;
57225;SDS011;43082;43.568;22.256;2022-08-21T08:09:45;10.05;;;4.30;;
57225;SDS011;43082;43.568;22.256;2022-08-21T08:12:11;10.15;;;5.28;;
57225;SDS011;43082;43.568;22.256;2022-08-21T08:14:36;13.07;;;5.40;;
57225;SDS011;43082;43.568;22.256;2022-08-21T08:17:02;10.30;;;2.78;;
57225;SDS011;43082;43.568;22.256;2022-08-21T08:19:28;11.40;;;5.40;;
57225;SDS011;43082;43.568;22.256;2022-08-21T08:21:54;7.18;;;2.40;;
57225;SDS011;43082;43.568;22.256;2022-08-21T08:24:19;8.02;;;3.13;;
57225;SDS011;43082;43.568;22.256;2022-08-21T08:26:45;9.88;;;3.88;;
57225;SDS011;43082;43.568;22.256;2022-08-21T08:29:11;8.27;;;3.50;;
57225;SDS011;43082;43.568;22.256;2022-08-21T08:31:36;9.27;;;2.35;;
57225;SDS011;43082;43.568;22.256;2022-08-21T08:34:02;6.63;;;2.28;;
57225;SDS011;43082;43.568;22.256;2022-08-21T08:36:34;7.13;;;2.30;;
57225;SDS011;43082;43.568;22.256;2022-08-21T08:39:01;7.78;;;2.00;;
57225;SDS011;43082;43.568;22.256;2022-08-21T08:41:28;7.78;;;2.88;;
57225;SDS011;43082;43.568;22.256;2022-08-21T08:43:57;9.18;;;2.50;;
57225;SDS011;43082;43.568;22.256;2022-08-21T08:46:29;11.82;;;3.85;;
57225;SDS011;43082;43.568;22.256;2022-08-21T08:49:00;10.77;;;3.92;;
57225;SDS011;43082;43.568;22.256;2022-08-21T08:54:12;8.23;;;2.75;;
57225;SDS011;43082;43.568;22.256;2022-08-21T08:56:42;8.55;;;2.45;;
57225;SDS011;43082;43.568;22.256;2022-08-21T08:59:15;10.80;;;4.70;;
57225;SDS011;43082;43.568;22.256;2022-08-21T09:01:43;8.97;;;2.80;;
57225;SDS011;43082;43.568;22.256;2022-08-21T09:04:09;7.45;;;2.42;;
57225;SDS011;43082;43.568;22.256;2022-08-21T09:09:12;8.75;;;2.67;;
57225;SDS011;43082;43.568;22.256;2022-08-21T09:25:10;8.32;;;2.90;;
57225;SDS011;43082;43.568;22.256;2022-08-21T09:27:40;16.25;;;6.20;;
57225;SDS011;43082;43.568;22.256;2022-08-21T09:30:06;12.98;;;4.25;;
57225;SDS011;43082;43.568;22.256;2022-08-21T09:32:32;10.82;;;3.20;;
57225;SDS011;43082;43.568;22.256;2022-08-21T09:37:29;10.18;;;3.78;;
57225;SDS011;43082;43.568;22.256;2022-08-21T09:39:56;10.35;;;3.60;;
57225;SDS011;43082;43.568;22.256;2022-08-21T09:42:24;8.88;;;3.58;;
57225;SDS011;43082;43.568;22.256;2022-08-21T09:45:05;10.90;;;4.30;;
57225;SDS011;43082;43.568;22.256;2022-08-21T09:47:36;11.13;;;4.70;;
57225;SDS011;43082;43.568;22.256;2022-08-21T09:50:35;8.77;;;4.55;;
57225;SDS011;43082;43.568;22.256;2022-08-21T09:52:57;11.13;;;4.60;;
57225;SDS011;43082;43.568;22.256;2022-08-21T09:55:29;10.73;;;5.00;;
57225;SDS011;43082;43.568;22.256;2022-08-21T09:58:18;11.85;;;5.90;;
57225;SDS011;43082;43.568;22.256;2022-08-21T10:00:45;12.38;;;6.70;;
57225;SDS011;43082;43.568;22.256;2022-08-21T10:03:18;9.70;;;4.93;;
57225;SDS011;43082;43.568;22.256;2022-08-21T10:08:23;11.88;;;7.70;;
57225;SDS011;43082;43.568;22.256;2022-08-21T10:10:51;12.77;;;7.22;;
57225;SDS011;43082;43.568;22.256;2022-08-21T10:21:05;11.63;;;7.97;;
57225;SDS011;43082;43.568;22.256;2022-08-21T10:23:36;13.43;;;7.40;;
57225;SDS011;43082;43.568;22.256;2022-08-21T10:28:40;11.13;;;6.75;;
57225;SDS011;43082;43.568;22.256;2022-08-21T10:31:16;12.63;;;6.20;;
57225;SDS011;43082;43.568;22.256;2022-08-21T10:36:20;10.23;;;4.32;;
57225;SDS011;43082;43.568;22.256;2022-08-21T10:47:35;9.30;;;3.25;;
57225;SDS011;43082;43.568;22.256;2022-08-21T10:50:55;9.95;;;3.13;;
57225;SDS011;43082;43.568;22.256;2022-08-21T10:56:19;10.13;;;4.53;;
57225;SDS011;43082;43.568;22.256;2022-08-21T11:01:31;20.58;;;11.20;;
57225;SDS011;43082;43.568;22.256;2022-08-21T11:04:07;8.05;;;3.58;;
57225;SDS011;43082;43.568;22.256;2022-08-21T11:06:42;8.25;;;4.05;;
57225;SDS011;43082;43.568;22.256;2022-08-21T11:09:13;11.68;;;4.05;;
57225;SDS011;43082;43.568;22.256;2022-08-21T11:12:28;9.27;;;3.42;;
57225;SDS011;43082;43.568;22.256;2022-08-21T11:17:12;7.15;;;3.20;;
57225;SDS011;43082;43.568;22.256;2022-08-21T11:22:28;11.18;;;3.78;;
57225;SDS011;43082;43.568;22.256;2022-08-21T11:25:09;9.15;;;3.30;;
57225;SDS011;43082;43.568;22.256;2022-08-21T11:27:54;9.88;;;4.10;;
57225;SDS011;43082;43.568;22.256;2022-08-21T11:30:25;13.43;;;4.70;;
57225;SDS011;43082;43.568;22.256;2022-08-21T11:35:51;8.93;;;3.60;;
57225;SDS011;43082;43.568;22.256;2022-08-21T11:41:25;12.48;;;4.13;;
57225;SDS011;43082;43.568;22.256;2022-08-21T11:46:37;9.70;;;3.65;;
57225;SDS011;43082;43.568;22.256;2022-08-21T11:51:46;7.55;;;3.75;;
57225;SDS011;43082;43.568;22.256;2022-08-21T11:56:46;10.65;;;3.75;;
57225;SDS011;43082;43.568;22.256;2022-08-21T11:59:36;9.80;;;4.13;;
57225;SDS011;43082;43.568;22.256;2022-08-21T12:02:33;11.55;;;4.03;;
57225;SDS011;43082;43.568;22.256;2022-08-21T12:07:35;11.57;;;5.95;;
57225;SDS011;43082;43.568;22.256;2022-08-21T12:10:10;10.65;;;4.93;;
57225;SDS011;43082;43.568;22.256;2022-08-21T12:12:41;7.78;;;4.18;;
57225;SDS011;43082;43.568;22.256;2022-08-21T12:17:51;14.13;;;9.77;;
57225;SDS011;43082;43.568;22.256;2022-08-21T12:20:40;10.45;;;5.90;;
57225;SDS011;43082;43.568;22.256;2022-08-21T12:25:40;9.50;;;5.70;;
57225;SDS011;43082;43.568;22.256;2022-08-21T12:28:15;10.38;;;5.80;;
57225;SDS011;43082;43.568;22.256;2022-08-21T12:30:46;10.00;;;6.18;;
57225;SDS011;43082;43.568;22.256;2022-08-21T12:33:24;9.65;;;6.00;;
57225;SDS011;43082;43.568;22.256;2022-08-21T12:35:53;10.18;;;5.40;;
57225;SDS011;43082;43.568;22.256;2022-08-21T12:38:28;11.23;;;5.35;;
57225;SDS011;43082;43.568;22.256;2022-08-21T12:41:04;11.30;;;5.60;;
57225;SDS011;43082;43.568;22.256;2022-08-21T12:43:37;8.07;;;5.40;;
57225;SDS011;43082;43.568;22.256;2022-08-21T12:46:04;9.40;;;5.72;;
57225;SDS011;43082;43.568;22.256;2022-08-21T12:48:33;10.20;;;5.97;;
57225;SDS011;43082;43.568;22.256;2022-08-21T12:51:12;8.55;;;5.80;;
57225;SDS011;43082;43.568;22.256;2022-08-21T12:56:13;9.77;;;5.65;;
57225;SDS011;43082;43.568;22.256;2022-08-21T12:58:41;10.82;;;6.18;;
57225;SDS011;43082;43.568;22.256;2022-08-21T13:01:32;10.75;;;6.22;;
57225;SDS011;43082;43.568;22.256;2022-08-21T13:04:01;10.00;;;5.70;;
57225;SDS011;43082;43.568;22.256;2022-08-21T13:06:31;8.77;;;5.97;;
57225;SDS011;43082;43.568;22.256;2022-08-21T13:08:58;10.75;;;6.32;;
57225;SDS011;43082;43.568;22.256;2022-08-21T13:11:31;8.77;;;5.95;;
57225;SDS011;43082;43.568;22.256;2022-08-21T13:13:56;9.30;;;5.93;;
57225;SDS011;43082;43.568;22.256;2022-08-21T13:16:24;9.35;;;5.90;;
57225;SDS011;43082;43.568;22.256;2022-08-21T13:19:02;11.57;;;5.53;;
57225;SDS011;43082;43.568;22.256;2022-08-21T13:21:41;11.52;;;6.35;;
57225;SDS011;43082;43.568;22.256;2022-08-21T13:26:48;9.55;;;5.55;;
57225;SDS011;43082;43.568;22.256;2022-08-21T13:29:16;9.90;;;5.75;;
57225;SDS011;43082;43.568;22.256;2022-08-21T13:31:54;9.48;;;6.43;;
57225;SDS011;43082;43.568;22.256;2022-08-21T13:34:25;9.18;;;6.10;;
57225;SDS011;43082;43.568;22.256;2022-08-21T13:37:00;8.80;;;6.10;;
57225;SDS011;43082;43.568;22.256;2022-08-21T13:39:29;8.77;;;5.55;;
57225;SDS011;43082;43.568;22.256;2022-08-21T13:41:55;12.63;;;9.57;;
57225;SDS011;43082;43.568;22.256;2022-08-21T13:44:23;10.07;;;6.30;;
57225;SDS011;43082;43.568;22.256;2022-08-21T13:49:26;10.05;;;5.97;;
57225;SDS011;43082;43.568;22.256;2022-08-21T13:51:54;10.00;;;7.20;;
57225;SDS011;43082;43.568;22.256;2022-08-21T13:54:36;9.30;;;6.57;;
57225;SDS011;43082;43.568;22.256;2022-08-21T13:57:03;8.43;;;6.00;;
57225;SDS011;43082;43.568;22.256;2022-08-21T13:59:33;11.98;;;8.15;;
57225;SDS011;43082;43.568;22.256;2022-08-21T14:04:52;13.68;;;8.20;;
57225;SDS011;43082;43.568;22.256;2022-08-21T14:07:24;13.93;;;7.82;;
57225;SDS011;43082;43.568;22.256;2022-08-21T14:09:54;10.50;;;8.05;;
57225;SDS011;43082;43.568;22.256;2022-08-21T14:12:32;10.68;;;7.55;;
57225;SDS011;43082;43.568;22.256;2022-08-21T14:15:18;14.55;;;7.97;;
57225;SDS011;43082;43.568;22.256;2022-08-21T14:17:47;11.70;;;7.82;;
57225;SDS011;43082;43.568;22.256;2022-08-21T14:20:25;11.85;;;7.38;;
57225;SDS011;43082;43.568;22.256;2022-08-21T14:22:58;14.18;;;8.25;;
57225;SDS011;43082;43.568;22.256;2022-08-21T14:27:54;12.55;;;7.50;;
57225;SDS011;43082;43.568;22.256;2022-08-21T14:30:26;11.00;;;7.30;;
57225;SDS011;43082;43.568;22.256;2022-08-21T14:32:57;14.82;;;7.60;;
57225;SDS011;43082;43.568;22.256;2022-08-21T14:35:23;9.88;;;6.82;;
57225;SDS011;43082;43.568;22.256;2022-08-21T14:37:48;12.57;;;7.35;;
57225;SDS011;43082;43.568;22.256;2022-08-21T14:40:19;13.90;;;7.43;;
57225;SDS011;43082;43.568;22.256;2022-08-21T14:42:46;13.65;;;7.32;;
57225;SDS011;43082;43.568;22.256;2022-08-21T14:45:19;10.98;;;7.47;;
57225;SDS011;43082;43.568;22.256;2022-08-21T14:47:51;12.50;;;7.18;;
57225;SDS011;43082;43.568;22.256;2022-08-21T14:50:17;11.27;;;7.47;;
57225;SDS011;43082;43.568;22.256;2022-08-21T14:52:42;11.15;;;7.88;;
57225;SDS011;43082;43.568;22.256;2022-08-21T14:55:11;15.95;;;7.55;;
57225;SDS011;43082;43.568;22.256;2022-08-21T14:57:41;10.88;;;7.45;;
57225;SDS011;43082;43.568;22.256;2022-08-21T15:00:09;12.88;;;7.20;;
57225;SDS011;43082;43.568;22.256;2022-08-21T15:02:36;15.60;;;7.80;;
57225;SDS011;43082;43.568;22.256;2022-08-21T15:05:01;12.68;;;7.63;;
57225;SDS011;43082;43.568;22.256;2022-08-21T15:07:27;12.35;;;7.70;;
57225;SDS011;43082;43.568;22.256;2022-08-21T15:09:53;12.75;;;7.65;;
57225;SDS011;43082;43.568;22.256;2022-08-21T15:12:18;14.23;;;7.47;;
57225;SDS011;43082;43.568;22.256;2022-08-21T15:14:44;13.80;;;7.03;;
57225;SDS011;43082;43.568;22.256;2022-08-21T15:17:10;12.93;;;7.40;;
57225;SDS011;43082;43.568;22.256;2022-08-21T15:19:36;11.65;;;7.30;;
57225;SDS011;43082;43.568;22.256;2022-08-21T15:22:02;12.20;;;7.07;;
57225;SDS011;43082;43.568;22.256;2022-08-21T15:24:28;10.70;;;7.40;;
57225;SDS011;43082;43.568;22.256;2022-08-21T15:26:53;15.43;;;7.40;;
57225;SDS011;43082;43.568;22.256;2022-08-21T15:29:20;12.68;;;7.85;;
57225;SDS011;43082;43.568;22.256;2022-08-21T15:31:50;11.82;;;7.75;;
57225;SDS011;43082;43.568;22.256;2022-08-21T15:34:20;12.52;;;7.85;;
57225;SDS011;43082;43.568;22.256;2022-08-21T15:36:46;12.02;;;7.75;;
57225;SDS011;43082;43.568;22.256;2022-08-21T15:39:12;12.48;;;7.72;;
57225;SDS011;43082;43.568;22.256;2022-08-21T15:41:37;10.18;;;7.53;;
57225;SDS011;43082;43.568;22.256;2022-08-21T15:44:03;12.18;;;7.60;;
57225;SDS011;43082;43.568;22.256;2022-08-21T15:46:29;13.90;;;7.43;;
57225;SDS011;43082;43.568;22.256;2022-08-21T15:48:54;12.88;;;7.43;;
57225;SDS011;43082;43.568;22.256;2022-08-21T15:51:20;11.98;;;7.22;;
57225;SDS011;43082;43.568;22.256;2022-08-21T15:53:45;12.13;;;7.70;;
57225;SDS011;43082;43.568;22.256;2022-08-21T15:56:14;12.82;;;7.32;;
57225;SDS011;43082;43.568;22.256;2022-08-21T15:58:48;14.93;;;8.20;;
57225;SDS011;43082;43.568;22.256;2022-08-21T16:01:17;11.27;;;7.50;;